Time;durP1;ratioP1;P1;durP2;ratioP2;P2;SDS_P1;SDS_P2;PMS_P1;PMS_P2;Temp;Humidity;BMP_temperature;BMP_pressure;BME280_temperature;BME280_humidity;BME280_pressure;Samples;Min_cycle;Max_cycle;Signal;HPM_P1;HPM_P2
2022/07/26 00:01:19;;;;;;;11.02;10.02;;;;;;;20.51;91.63;98881.13;5102834;28;20183;-61
2022/07/26 00:03:45;;;;;;;13.25;11.18;;;;;;;20.52;91.75;98879.31;5102789;28;20095;-60
2022/07/26 00:06:11;;;;;;;12.15;10.95;;;;;;;20.48;91.71;98878.72;5102956;28;20082;-60
2022/07/26 00:08:36;;;;;;;13.13;10.52;;;;;;;20.47;91.55;98874.41;5102654;28;20352;-60
2022/07/26 00:11:02;;;;;;;13.13;11.13;;;;;;;20.42;91.82;98873.94;5102520;28;20058;-61
2022/07/26 00:13:27;;;;;;;12.15;10.95;;;;;;;20.39;91.95;98861.00;5104430;28;20020;-60
2022/07/26 00:15:53;;;;;;;11.65;10.57;;;;;;;20.45;91.65;98870.22;5106418;28;20035;-60
2022/07/26 00:18:19;;;;;;;12.90;11.55;;;;;;;20.49;91.46;98875.16;5106668;28;20024;-60
2022/07/26 00:20:45;;;;;;;12.48;11.18;;;;;;;20.50;91.23;98876.81;5105257;28;20027;-60
2022/07/26 00:23:11;;;;;;;13.07;11.63;;;;;;;20.49;91.57;98876.91;5106510;28;20024;-60
2022/07/26 00:25:37;;;;;;;11.15;9.98;;;;;;;20.52;91.14;98872.28;5106549;28;20181;-60
2022/07/26 00:28:04;;;;;;;12.55;11.35;;;;;;;20.47;91.58;98877.03;5106262;28;20190;-61
2022/07/26 00:30:30;;;;;;;12.77;10.90;;;;;;;20.46;91.38;98877.16;5105220;28;20069;-61
2022/07/26 00:32:56;;;;;;;13.10;11.63;;;;;;;20.43;91.70;98872.13;5096322;28;20333;-60
2022/07/26 00:35:22;;;;;;;14.00;11.30;;;;;;;20.33;91.85;98866.72;5099249;28;20023;-61
2022/07/26 00:37:47;;;;;;;13.88;11.32;;;;;;;20.34;92.17;98869.25;5106036;28;20099;-60
2022/07/26 00:40:15;;;;;;;12.82;11.52;;;;;;;20.28;92.61;98859.19;5106044;28;20069;-60
2022/07/26 00:42:41;;;;;;;12.35;11.07;;;;;;;20.30;92.55;98867.78;5106286;28;20024;-60
2022/07/26 00:45:08;;;;;;;12.32;11.13;;;;;;;20.31;92.52;98869.47;5110763;28;20032;-60
2022/07/26 00:47:34;;;;;;;12.43;11.18;;;;;;;20.32;92.52;98865.03;5105903;28;20035;-61
2022/07/26 00:50:00;;;;;;;12.13;10.93;;;;;;;20.29;92.51;98855.59;5106053;28;20230;-60
2022/07/26 00:52:26;;;;;;;13.60;12.20;;;;;;;20.31;92.67;98856.31;5105961;28;20032;-59
2022/07/26 00:54:53;;;;;;;13.50;12.10;;;;;;;20.34;92.43;98856.09;5105989;28;20212;-60
2022/07/26 00:57:23;;;;;;;12.57;11.38;;;;;;;20.13;92.21;98813.84;5105788;28;20020;-60
2022/07/26 00:59:49;;;;;;;15.68;11.65;;;;;;;20.37;92.29;98859.47;5105884;28;20058;-61
2022/07/26 01:02:16;;;;;;;12.50;11.20;;;;;;;20.39;92.07;98866.25;5104471;28;20250;-61
2022/07/26 01:04:45;;;;;;;13.40;11.55;;;;;;;20.38;91.75;98855.84;5105572;28;20020;-60
2022/07/26 01:07:12;;;;;;;12.10;10.88;;;;;;;20.37;91.93;98852.38;5105620;28;20058;-61
2022/07/26 01:09:38;;;;;;;12.05;10.85;;;;;;;20.33;92.09;98854.41;5105734;28;20028;-60
2022/07/26 01:12:04;;;;;;;12.60;11.40;;;;;;;20.25;92.46;98853.31;5105506;28;20024;-61
2022/07/26 01:14:30;;;;;;;12.88;11.65;;;;;;;20.28;92.18;98853.94;5105594;28;20028;-61
2022/07/26 01:16:56;;;;;;;14.02;12.18;;;;;;;20.29;92.50;98862.66;5105368;28;20204;-60
2022/07/26 01:19:22;;;;;;;12.48;11.27;;;;;;;20.28;92.84;98861.81;5105609;28;20036;-60
2022/07/26 01:21:49;;;;;;;12.80;11.52;;;;;;;20.32;92.52;98863.25;5105569;28;20027;-59
2022/07/26 01:24:14;;;;;;;13.27;11.93;;;;;;;20.32;92.37;98857.16;5103584;28;20031;-60
2022/07/26 01:26:40;;;;;;;13.10;11.75;;;;;;;20.33;92.24;98856.19;5105173;28;20020;-60
2022/07/26 01:29:06;;;;;;;14.15;12.00;;;;;;;20.32;92.41;98855.38;5105056;28;20035;-60
2022/07/26 01:31:32;;;;;;;13.60;11.90;;;;;;;20.28;92.58;98855.69;5105095;28;20364;-60
2022/07/26 01:33:58;;;;;;;15.68;11.88;;;;;;;20.24;92.76;98863.00;5105495;28;20020;-60
2022/07/26 01:36:24;;;;;;;13.68;12.48;;;;;;;20.28;92.58;98863.59;5104165;28;20020;-60
2022/07/26 01:38:49;;;;;;;12.98;11.65;;;;;;;20.31;92.52;98868.66;5104889;28;20320;-60
2022/07/26 01:41:15;;;;;;;14.23;12.02;;;;;;;20.28;92.81;98863.59;5104952;28;20612;-60
2022/07/26 01:43:40;;;;;;;13.18;11.75;;;;;;;20.28;92.36;98860.97;5105306;28;20341;-59
2022/07/26 01:46:08;;;;;;;14.27;12.57;;;;;;;20.04;92.69;98832.94;5092493;28;20221;-59
2022/07/26 01:48:33;;;;;;;13.77;12.48;;;;;;;20.23;93.46;98868.38;5084429;28;20032;-59
2022/07/26 01:51:00;;;;;;;14.73;12.63;;;;;;;20.32;92.73;98872.94;5102473;28;20020;-59
2022/07/26 01:53:25;;;;;;;13.15;11.85;;;;;;;20.28;92.87;98877.59;5104730;28;20047;-60
2022/07/26 01:55:51;;;;;;;12.85;11.70;;;;;;;20.31;92.51;98877.34;5104670;28;20317;-60
2022/07/26 01:58:17;;;;;;;12.82;11.60;;;;;;;20.28;93.11;98885.47;5104433;28;20050;-60
2022/07/26 02:00:42;;;;;;;12.88;11.55;;;;;;;20.27;92.98;98881.16;5104735;28;20153;-60
2022/07/26 02:03:08;;;;;;;13.13;11.45;;;;;;;20.29;92.99;98884.50;5104649;28;20040;-61
2022/07/26 02:05:34;;;;;;;13.20;11.90;;;;;;;20.33;92.59;98890.41;5104480;28;20243;-61
2022/07/26 02:07:59;;;;;;;16.75;12.35;;;;;;;20.31;92.81;98889.69;5104238;28;20065;-60
2022/07/26 02:10:59;;;;;;;12.55;11.23;;;;;;;20.29;93.04;98891.56;5104405;28;20324;-60
2022/07/26 02:13:15;;;;;;;14.65;12.30;;;;;;;20.28;92.95;98896.00;5104165;28;20023;-61
2022/07/26 02:15:40;;;;;;;12.52;11.27;;;;;;;20.30;93.03;98895.88;5104405;28;20027;-60
2022/07/26 02:18:06;;;;;;;13.52;12.23;;;;;;;20.29;93.04;98897.66;5104056;28;20095;-60
2022/07/26 02:20:32;;;;;;;12.95;11.63;;;;;;;20.28;92.87;98900.41;5104310;28;20304;-61
2022/07/26 02:22:59;;;;;;;12.50;11.38;;;;;;;20.31;92.89;98921.25;5104074;28;20024;-61
2022/07/26 02:25:26;;;;;;;13.30;12.10;;;;;;;20.30;93.46;98909.88;5103998;28;20043;-60
2022/07/26 02:27:52;;;;;;;12.50;11.32;;;;;;;20.33;93.28;98914.88;5104221;28;20079;-61
2022/07/26 02:30:18;;;;;;;14.10;12.60;;;;;;;20.36;93.02;98911.19;5103927;28;20040;-60
2022/07/26 02:32:43;;;;;;;12.93;11.63;;;;;;;20.40;93.17;98910.03;5103927;28;20024;-60
2022/07/26 02:35:10;;;;;;;14.30;12.90;;;;;;;20.45;92.71;98907.91;5103358;28;20028;-60
2022/07/26 02:37:36;;;;;;;13.35;11.95;;;;;;;20.43;92.48;98906.31;5103602;28;20225;-60
2022/07/26 02:40:03;;;;;;;14.10;12.70;;;;;;;20.32;92.65;98880.81;5103801;28;20020;-61
2022/07/26 02:42:29;;;;;;;15.60;12.43;;;;;;;20.48;92.61;98907.66;5102766;28;20020;-61
2022/07/26 02:44:55;;;;;;;13.60;11.55;;;;;;;20.43;93.36;98908.97;5107850;28;20019;-60
2022/07/26 02:47:20;;;;;;;13.73;12.43;;;;;;;20.47;92.89;98916.50;5102814;28;20031;-60
2022/07/26 02:49:47;;;;;;;13.60;12.23;;;;;;;20.51;92.76;98920.56;5103588;28;20313;-60
2022/07/26 02:52:13;;;;;;;13.77;12.40;;;;;;;20.55;92.72;98912.44;5103657;28;20024;-60
2022/07/26 02:54:38;;;;;;;14.85;13.30;;;;;;;20.56;92.83;98914.97;5102122;28;20081;-59
2022/07/26 02:57:04;;;;;;;14.88;13.40;;;;;;;20.60;92.79;98920.84;5103355;28;20024;-60
2022/07/26 02:59:29;;;;;;;13.90;12.52;;;;;;;20.55;93.03;98921.19;5101216;28;20031;-60
2022/07/26 03:01:55;;;;;;;14.38;12.63;;;;;;;20.60;92.99;98928.75;5090325;28;20020;-60
2022/07/26 03:04:21;;;;;;;14.05;12.65;;;;;;;20.57;93.24;98927.16;5103449;28;20216;-60
2022/07/26 03:06:46;;;;;;;13.85;12.43;;;;;;;20.60;92.95;98934.00;5103458;28;20024;-60
2022/07/26 03:09:12;;;;;;;14.35;12.90;;;;;;;20.64;93.14;98945.97;5103328;28;20309;-60
2022/07/26 03:11:37;;;;;;;15.52;12.85;;;;;;;20.69;92.93;98941.22;5103308;28;20051;-60
2022/07/26 03:14:04;;;;;;;14.23;12.30;;;;;;;20.77;92.38;98943.28;5103127;28;20023;-60
2022/07/26 03:16:30;;;;;;;13.82;12.43;;;;;;;20.78;92.55;98945.81;5103241;28;20028;-60
2022/07/26 03:18:56;;;;;;;16.35;12.40;;;;;;;20.81;92.77;98945.56;5103200;28;20069;-60
2022/07/26 03:21:21;;;;;;;13.60;12.10;;;;;;;20.85;92.33;98952.28;5103113;28;20032;-60
2022/07/26 03:23:47;;;;;;;14.75;12.75;;;;;;;20.93;92.27;98961.38;5103019;28;20028;-60
2022/07/26 03:26:14;;;;;;;13.27;11.88;;;;;;;20.98;92.23;98962.69;5103017;28;20254;-60
2022/07/26 03:28:41;;;;;;;14.07;12.68;;;;;;;21.04;92.20;98970.13;5095591;28;20023;-60
2022/07/26 03:31:07;;;;;;;13.63;12.38;;;;;;;21.09;91.90;98969.78;5083707;28;20040;-61
2022/07/26 03:33:33;;;;;;;14.88;13.25;;;;;;;21.08;91.36;98959.34;5103161;28;20369;-61
2022/07/26 03:35:59;;;;;;;15.73;13.73;;;;;;;21.16;91.66;98959.59;5102853;28;20028;-60
2022/07/26 03:38:24;;;;;;;13.75;12.27;;;;;;;21.21;91.30;98957.47;5102630;28;20023;-60
2022/07/26 03:40:50;;;;;;;15.35;12.93;;;;;;;21.23;91.70;98954.72;5103192;28;20051;-60
2022/07/26 03:43:16;;;;;;;14.68;13.02;;;;;;;21.22;91.88;98961.78;5102921;28;20095;-60
2022/07/26 03:45:41;;;;;;;13.48;12.07;;;;;;;21.29;91.57;98954.22;5101575;28;20062;-60
2022/07/26 03:48:07;;;;;;;16.13;13.70;;;;;;;21.35;91.59;98949.31;5106036;28;20125;-60
2022/07/26 03:50:33;;;;;;;15.05;13.52;;;;;;;21.42;91.21;98948.84;5104695;28;20020;-60
2022/07/26 03:52:58;;;;;;;15.85;13.60;;;;;;;21.47;90.62;98947.50;5095012;28;20036;-61
2022/07/26 03:58:08;;;;;;;16.63;13.57;;;;;;;21.57;89.64;98949.47;5106747;28;20042;-61
2022/07/26 04:00:33;;;;;;;14.60;13.13;;;;;;;21.61;88.93;98948.28;5107144;28;20032;-61
2022/07/26 04:02:59;;;;;;;14.18;12.60;;;;;;;21.68;88.76;98952.91;5105463;28;20062;-61
2022/07/26 04:05:25;;;;;;;14.63;11.70;;;;;;;21.70;88.23;98950.97;5106610;28;20031;-61
2022/07/26 04:07:50;;;;;;;14.43;13.00;;;;;;;21.74;88.52;98943.69;5106518;28;20032;-60
2022/07/26 04:10:17;;;;;;;13.25;11.60;;;;;;;21.78;88.07;98942.47;5106691;28;20036;-61
2022/07/26 04:12:42;;;;;;;14.50;13.10;;;;;;;21.88;88.42;98958.41;5106653;28;20130;-61
2022/07/26 04:15:09;;;;;;;14.85;13.32;;;;;;;21.84;88.83;98955.16;5106597;28;20047;-61
2022/07/26 04:17:39;;;;;;;13.88;12.48;;;;;;;21.96;89.11;98963.91;5099458;28;20272;-60
2022/07/26 04:20:06;;;;;;;15.20;12.68;;;;;;;22.01;89.11;98967.00;5095165;28;20325;-60
2022/07/26 04:22:34;;;;;;;15.73;12.65;;;;;;;21.79;88.85;98912.53;5106548;28;20051;-60
2022/07/26 04:25:01;;;;;;;14.38;12.85;;;;;;;22.04;88.50;98960.63;5106426;28;20030;-60
2022/07/26 04:27:27;;;;;;;13.73;12.20;;;;;;;22.10;88.89;98948.75;5085987;28;20209;-61
2022/07/26 04:29:52;;;;;;;13.57;12.27;;;;;;;22.07;87.72;98955.09;5101199;28;20052;-60
2022/07/26 04:32:18;;;;;;;13.95;12.23;;;;;;;22.17;87.52;98947.28;5104795;28;20034;-62
2022/07/26 04:34:44;;;;;;;14.88;11.65;;;;;;;22.26;87.50;98950.97;5106082;28;20255;-62
2022/07/26 04:37:09;;;;;;;13.50;11.73;;;;;;;22.20;87.43;98950.53;5100282;28;20025;-62
2022/07/26 04:39:35;;;;;;;13.63;11.48;;;;;;;22.30;86.89;98949.75;5091854;28;20042;-62
2022/07/26 04:42:00;;;;;;;13.05;11.57;;;;;;;22.35;86.67;98952.91;5104922;28;20036;-62
2022/07/26 04:44:26;;;;;;;13.05;11.75;;;;;;;22.41;86.20;98955.03;5106218;28;20201;-62
2022/07/26 04:46:51;;;;;;;13.02;11.88;;;;;;;22.38;86.65;98956.09;5100043;28;20024;-62
2022/07/26 04:49:17;;;;;;;13.50;12.13;;;;;;;22.47;86.45;98962.41;5105823;28;20301;-60
2022/07/26 04:51:42;;;;;;;13.02;11.68;;;;;;;22.47;85.44;98946.59;5099404;28;20074;-61
2022/07/26 04:54:08;;;;;;;13.45;12.13;;;;;;;22.58;85.55;98951.81;5095661;28;20028;-60
2022/07/26 04:56:34;;;;;;;12.80;11.43;;;;;;;22.62;85.07;98949.75;5100434;28;20020;-60
2022/07/26 04:58:59;;;;;;;12.55;11.30;;;;;;;22.69;84.65;98956.22;5101462;28;20998;-62
2022/07/26 05:01:25;;;;;;;12.57;11.27;;;;;;;22.73;84.72;98957.63;5087231;28;20099;-61
2022/07/26 05:03:50;;;;;;;12.48;11.27;;;;;;;22.81;84.19;98956.97;5105665;28;20028;-61
2022/07/26 05:06:16;;;;;;;12.43;11.23;;;;;;;22.96;83.19;98965.41;5101680;28;20073;-61
2022/07/26 05:08:42;;;;;;;11.13;10.15;;;;;;;23.21;81.24;98961.53;5105297;28;20088;-62
2022/07/26 05:11:08;;;;;;;12.82;11.10;;;;;;;23.36;81.34;98961.16;5105352;28;20028;-63
2022/07/26 05:13:34;;;;;;;11.70;10.60;;;;;;;23.38;80.14;98959.25;5105112;28;20303;-62
2022/07/26 05:15:59;;;;;;;12.18;10.82;;;;;;;23.39;80.28;98953.00;5104317;28;20042;-62
2022/07/26 05:18:26;;;;;;;12.45;10.90;;;;;;;23.41;80.48;98959.81;5104936;28;20083;-62
2022/07/26 05:20:51;;;;;;;13.00;10.82;;;;;;;23.38;80.86;98964.53;5105293;28;20032;-62
2022/07/26 05:23:19;;;;;;;11.77;10.57;;;;;;;23.51;80.65;98964.31;5105272;28;20062;-61
2022/07/26 05:25:45;;;;;;;12.27;10.45;;;;;;;23.68;80.68;98968.13;5105025;28;20055;-61
2022/07/26 05:28:10;;;;;;;11.98;10.80;;;;;;;23.72;80.45;98969.53;5103824;28;20028;-61
2022/07/26 05:30:36;;;;;;;12.38;10.68;;;;;;;23.82;80.16;98970.38;5103900;28;20051;-61
2022/07/26 05:33:02;;;;;;;10.88;9.82;;;;;;;23.84;80.43;98968.41;5105109;28;20088;-61
2022/07/26 05:35:27;;;;;;;12.77;11.48;;;;;;;23.79;80.74;98973.31;5104997;28;20092;-61
2022/07/26 05:37:53;;;;;;;12.35;11.15;;;;;;;23.93;79.86;98975.59;5104524;28;20031;-61
2022/07/26 05:40:19;;;;;;;12.70;11.20;;;;;;;24.05;79.81;98971.00;5104638;28;20039;-61
2022/07/26 05:42:44;;;;;;;13.88;12.00;;;;;;;24.08;79.31;98972.56;5104897;28;20328;-61
2022/07/26 05:45:10;;;;;;;12.90;11.63;;;;;;;24.19;77.40;98961.00;5108732;28;20024;-61
2022/07/26 05:47:36;;;;;;;12.50;11.15;;;;;;;24.24;78.14;98979.94;5104886;28;20039;-61
2022/07/26 05:50:03;;;;;;;13.43;12.05;;;;;;;24.18;78.18;98978.69;5104585;28;20016;-61
2022/07/26 05:52:29;;;;;;;12.20;11.07;;;;;;;24.26;78.64;98970.06;5104245;28;20044;-62
2022/07/26 05:54:55;;;;;;;15.43;11.68;;;;;;;24.25;78.01;98974.50;5104260;28;20027;-62
2022/07/26 05:57:20;;;;;;;12.50;11.20;;;;;;;24.23;77.97;98968.53;5103990;28;20237;-62
2022/07/26 05:59:46;;;;;;;11.68;10.57;;;;;;;24.35;78.20;98971.03;5102785;28;20024;-62
2022/07/26 06:02:12;;;;;;;12.30;11.20;;;;;;;24.36;78.39;98972.72;5103785;28;20035;-61
2022/07/26 06:04:38;;;;;;;12.48;11.25;;;;;;;24.36;77.67;98968.25;5103938;28;20078;-60
2022/07/26 06:07:03;;;;;;;11.90;10.70;;;;;;;24.46;78.59;98965.63;5104202;28;20036;-60
2022/07/26 06:09:29;;;;;;;13.32;11.93;;;;;;;24.48;77.72;98961.00;5103315;28;20020;-62
2022/07/26 06:11:55;;;;;;;12.43;11.25;;;;;;;24.51;77.83;98960.72;5101934;28;20197;-62
2022/07/26 06:14:21;;;;;;;11.18;10.20;;;;;;;24.60;77.05;98964.38;5093430;28;20363;-62
2022/07/26 06:16:47;;;;;;;11.80;10.60;;;;;;;24.67;76.30;98957.56;5086059;28;20563;-62
2022/07/26 06:19:13;;;;;;;11.82;10.73;;;;;;;24.71;76.42;98960.75;5094377;28;20028;-61
2022/07/26 06:21:38;;;;;;;11.70;10.60;;;;;;;24.80;76.19;98959.91;5090929;28;20333;-61
2022/07/26 06:24:04;;;;;;;12.00;10.80;;;;;;;24.79;75.76;98956.41;5096082;28;20312;-61
2022/07/26 06:26:30;;;;;;;11.35;10.38;;;;;;;24.81;75.26;98959.75;5092089;28;20151;-61
2022/07/26 06:28:55;;;;;;;11.98;10.20;;;;;;;24.81;74.99;98965.06;5100160;28;20062;-61
2022/07/26 06:31:21;;;;;;;11.70;10.48;;;;;;;24.89;74.46;98963.50;5095498;28;20043;-61
2022/07/26 06:33:47;;;;;;;11.00;9.82;;;;;;;24.87;73.74;98961.00;5103280;28;20032;-63
2022/07/26 06:36:13;;;;;;;10.98;10.02;;;;;;;25.03;72.82;98972.81;5101192;28;20085;-63
2022/07/26 06:38:39;;;;;;;11.00;9.90;;;;;;;25.07;73.95;98971.53;5103368;28;20039;-62
2022/07/26 06:41:04;;;;;;;11.10;10.00;;;;;;;25.13;74.15;98969.16;5102512;28;20027;-62
2022/07/26 06:43:30;;;;;;;11.15;10.25;;;;;;;25.16;74.37;98962.72;5103622;28;20031;-62
2022/07/26 06:45:56;;;;;;;11.82;10.73;;;;;;;25.18;75.17;98962.59;5103304;28;20020;-62
2022/07/26 06:48:21;;;;;;;11.13;10.02;;;;;;;25.15;72.61;98964.56;5102482;28;20162;-61
2022/07/26 06:50:47;;;;;;;14.18;11.00;;;;;;;25.24;73.41;98960.19;5103454;28;20065;-61
2022/07/26 06:53:13;;;;;;;10.35;9.55;;;;;;;25.26;72.49;98963.53;5103669;28;20024;-61
2022/07/26 06:55:39;;;;;;;12.20;10.45;;;;;;;25.34;72.90;98962.84;5103386;28;20024;-61
2022/07/26 06:58:05;;;;;;;12.32;11.07;;;;;;;25.42;72.55;98959.47;5103678;28;20034;-64
2022/07/26 07:00:30;;;;;;;11.73;10.52;;;;;;;25.56;73.05;98955.50;5102773;28;20027;-65
2022/07/26 07:02:56;;;;;;;12.35;11.20;;;;;;;25.47;73.27;98943.94;5090767;28;20032;-64
2022/07/26 07:05:22;;;;;;;11.57;10.38;;;;;;;25.56;73.05;98950.19;5093033;28;20344;-64
2022/07/26 07:07:47;;;;;;;12.18;11.07;;;;;;;25.57;73.37;98955.34;5089365;28;20032;-64
2022/07/26 07:10:13;;;;;;;11.77;10.68;;;;;;;25.60;72.88;98946.25;5103473;28;20028;-63
2022/07/26 07:12:39;;;;;;;11.73;10.52;;;;;;;25.67;72.26;98953.47;5103180;28;20050;-63
2022/07/26 07:15:05;;;;;;;11.18;10.07;;;;;;;25.75;70.80;98960.69;5103481;28;20039;-63
2022/07/26 07:17:31;;;;;;;11.48;10.38;;;;;;;25.71;69.88;98954.03;5102813;28;20220;-64
2022/07/26 07:19:56;;;;;;;11.88;10.77;;;;;;;25.78;70.04;98951.59;5097512;28;20052;-63
2022/07/26 07:22:22;;;;;;;10.73;9.73;;;;;;;25.87;70.18;98953.34;5084329;28;20028;-63
2022/07/26 07:24:48;;;;;;;13.60;11.45;;;;;;;25.82;70.38;98951.16;5103201;28;20015;-62
2022/07/26 07:27:13;;;;;;;12.82;10.75;;;;;;;25.92;70.78;98953.72;5103078;28;20024;-62
2022/07/26 07:29:40;;;;;;;11.93;10.73;;;;;;;25.98;70.02;98961.09;5102737;28;20036;-62
2022/07/26 07:32:05;;;;;;;11.20;10.30;;;;;;;26.11;69.38;98957.25;5102958;28;20028;-63
2022/07/26 07:34:31;;;;;;;11.00;9.95;;;;;;;26.08;69.05;98955.78;5096787;28;20082;-63
2022/07/26 07:36:57;;;;;;;11.25;10.25;;;;;;;25.98;69.66;98955.81;5103120;28;20324;-63
2022/07/26 07:39:23;;;;;;;10.98;9.93;;;;;;;26.10;70.10;98959.09;5102376;28;20078;-62
2022/07/26 07:41:48;;;;;;;11.18;9.98;;;;;;;26.05;69.83;98952.56;5095947;28;20028;-64
2022/07/26 07:44:14;;;;;;;12.93;10.35;;;;;;;26.12;68.73;98957.13;5101410;28;20020;-64
2022/07/26 07:46:40;;;;;;;11.15;9.90;;;;;;;26.20;69.05;98961.69;5098614;28;20020;-64
2022/07/26 07:49:05;;;;;;;11.20;10.18;;;;;;;26.30;68.49;98948.34;5099185;28;20024;-63
2022/07/26 07:51:32;;;;;;;10.95;9.93;;;;;;;26.30;69.32;98951.81;5097508;28;20109;-64
2022/07/26 07:53:58;;;;;;;11.20;10.20;;;;;;;26.36;69.31;98955.69;5093941;28;20216;-65
2022/07/26 07:56:24;;;;;;;13.25;10.65;;;;;;;26.42;69.40;98951.59;5096681;28;20233;-63
2022/07/26 07:58:50;;;;;;;11.90;10.75;;;;;;;26.39;68.59;98952.72;5077412;28;20061;-64
2022/07/26 08:01:16;;;;;;;10.80;9.90;;;;;;;26.26;68.77;98958.41;5092124;28;20028;-65
2022/07/26 08:03:42;;;;;;;11.27;10.18;;;;;;;26.38;69.31;98961.69;5093531;28;20039;-64
2022/07/26 08:06:08;;;;;;;11.65;10.57;;;;;;;26.48;68.65;98949.16;5094691;28;20358;-64
2022/07/26 08:08:35;;;;;;;11.15;10.13;;;;;;;26.57;67.67;98949.22;5095187;28;20039;-64
2022/07/26 08:11:01;;;;;;;10.90;9.90;;;;;;;26.67;66.70;98955.28;5101203;28;20111;-63
2022/07/26 08:13:26;;;;;;;12.15;10.98;;;;;;;26.74;66.68;98958.19;5095889;28;20020;-63
2022/07/26 08:15:53;;;;;;;11.45;10.35;;;;;;;26.74;66.97;98961.66;5093310;28;20355;-64
2022/07/26 08:18:21;;;;;;;11.70;10.50;;;;;;;26.69;68.48;98956.81;5096198;28;20020;-64
2022/07/26 08:20:46;;;;;;;13.20;11.38;;;;;;;26.63;67.08;98961.88;5093721;28;20033;-64
2022/07/26 08:23:12;;;;;;;11.70;10.55;;;;;;;26.70;67.30;98958.47;5094276;28;20016;-64
2022/07/26 08:25:38;;;;;;;10.90;9.80;;;;;;;26.81;65.05;98961.88;5090453;28;20355;-63
2022/07/26 08:28:03;;;;;;;11.07;10.13;;;;;;;26.86;64.52;98959.59;5098263;28;20096;-62
2022/07/26 08:30:33;;;;;;;11.82;9.60;;;;;;;26.93;63.84;98960.63;5096861;28;20040;-61
2022/07/26 08:32:59;;;;;;;12.07;10.38;;;;;;;27.12;64.25;98964.91;5098589;28;20077;-61
2022/07/26 08:35:25;;;;;;;11.63;10.52;;;;;;;27.25;65.12;98961.81;5104529;28;20027;-62
2022/07/26 08:37:51;;;;;;;12.00;10.75;;;;;;;27.26;64.94;98958.16;5105945;28;20078;-61
2022/07/26 08:40:16;;;;;;;11.27;10.18;;;;;;;27.37;64.89;98959.75;5105213;28;20067;-62
2022/07/26 08:42:53;;;;;;;11.43;10.40;;;;;;;27.40;63.05;98966.56;5106096;28;20273;-62
2022/07/26 08:45:26;;;;;;;11.70;10.50;;;;;;;27.48;63.66;98969.28;5105600;28;20024;-62
2022/07/26 08:47:53;;;;;;;10.70;9.70;;;;;;;27.42;63.43;98943.31;5105767;28;20122;-62
2022/07/26 08:50:20;;;;;;;10.20;9.20;;;;;;;27.59;61.87;98955.66;5104611;28;20224;-62
2022/07/26 08:52:46;;;;;;;10.13;9.27;;;;;;;27.64;62.29;98950.72;5106108;28;20043;-61
2022/07/26 08:55:17;;;;;;;10.50;9.50;;;;;;;27.46;59.46;98929.50;5105126;28;20024;-61
2022/07/26 08:57:43;;;;;;;10.50;9.50;;;;;;;27.62;61.92;98966.00;5099608;28;20060;-61
2022/07/26 09:00:17;;;;;;;9.00;8.30;;;;;;;27.57;62.13;98956.84;5098066;28;20080;-62
2022/07/26 09:02:44;;;;;;;9.05;8.25;;;;;;;27.65;63.05;98967.50;5105373;28;20024;-61
2022/07/26 09:05:10;;;;;;;9.15;8.35;;;;;;;27.62;61.40;98947.38;5105123;28;20198;-61
2022/07/26 09:07:38;;;;;;;9.70;8.55;;;;;;;27.75;60.55;98964.69;5105082;28;20028;-62
2022/07/26 09:10:10;;;;;;;10.45;9.30;;;;;;;27.88;60.20;98965.91;5104860;28;20337;-61
2022/07/26 09:12:37;;;;;;;10.07;8.93;;;;;;;27.97;61.38;98972.09;5103588;28;20320;-62
2022/07/26 09:15:05;;;;;;;9.77;8.85;;;;;;;28.09;59.97;98972.66;5104554;28;20035;-62
2022/07/26 09:17:40;;;;;;;10.15;9.25;;;;;;;27.88;58.98;98941.13;5104955;28;20035;-62
2022/07/26 09:20:10;;;;;;;9.75;8.95;;;;;;;28.15;57.08;98971.19;5103953;28;20062;-62
2022/07/26 09:22:38;;;;;;;10.13;8.98;;;;;;;28.19;58.83;98965.34;5105238;28;20032;-62
2022/07/26 09:25:18;;;;;;;10.70;9.80;;;;;;;28.15;58.95;98956.03;5102051;28;20043;-62
2022/07/26 09:27:44;;;;;;;10.32;9.27;;;;;;;28.34;59.08;98975.34;5091298;28;20058;-62
2022/07/26 09:30:10;;;;;;;10.00;9.10;;;;;;;28.42;56.05;98978.03;5099381;28;20032;-62
2022/07/26 09:32:36;;;;;;;9.77;8.73;;;;;;;28.54;57.55;98963.34;5105087;28;20023;-62
2022/07/26 09:35:16;;;;;;;10.95;9.63;;;;;;;28.57;58.51;98965.72;5098021;28;20044;-62
2022/07/26 09:37:45;;;;;;;10.52;9.52;;;;;;;28.36;59.18;98970.69;5105211;28;20048;-63
2022/07/26 09:40:13;;;;;;;11.00;9.32;;;;;;;28.46;58.96;98962.53;5104952;28;20035;-63
2022/07/26 09:43:03;;;;;;;10.27;9.23;;;;;;;28.54;58.32;98965.19;5103686;28;20028;-63
2022/07/26 09:45:34;;;;;;;10.27;9.30;;;;;;;28.25;55.51;98929.25;5107641;28;20020;-64
2022/07/26 09:48:02;;;;;;;10.52;9.52;;;;;;;28.35;56.15;98959.19;5105193;28;20062;-64
2022/07/26 09:50:30;;;;;;;11.07;10.05;;;;;;;28.12;58.42;98928.88;5103753;28;20062;-65
2022/07/26 09:53:16;;;;;;;10.40;9.45;;;;;;;28.16;58.71;98962.16;5104515;28;20032;-61
2022/07/26 09:55:44;;;;;;;11.75;9.50;;;;;;;28.30;59.58;98961.50;5104087;28;20040;-61
2022/07/26 09:58:15;;;;;;;14.65;9.43;;;;;;;28.25;59.95;98958.53;5103693;28;20024;-61
2022/07/26 10:00:42;;;;;;;11.70;10.60;;;;;;;28.22;56.52;98962.34;5103462;28;20028;-61
2022/07/26 10:03:08;;;;;;;11.32;10.23;;;;;;;28.25;55.27;98966.53;5103615;28;20208;-62
2022/07/26 10:05:34;;;;;;;10.55;9.57;;;;;;;28.35;56.33;98967.19;5103401;28;20029;-62
2022/07/26 10:08:00;;;;;;;11.23;9.48;;;;;;;28.39;58.21;98960.53;5104157;28;20028;-62
2022/07/26 10:10:28;;;;;;;13.38;9.45;;;;;;;28.23;58.97;98934.72;5104403;28;20061;-64
2022/07/26 10:12:55;;;;;;;10.27;9.27;;;;;;;28.43;59.14;98950.38;5102136;28;20039;-63
2022/07/26 10:15:44;;;;;;;22.60;9.32;;;;;;;28.30;59.65;98942.88;5094161;28;20028;-64
2022/07/26 10:18:30;;;;;;;10.27;9.23;;;;;;;28.33;57.82;98955.03;5103522;28;20020;-64
2022/07/26 10:20:56;;;;;;;11.60;10.55;;;;;;;28.37;56.62;98954.53;5095215;28;20251;-65
2022/07/26 10:23:31;;;;;;;10.38;9.43;;;;;;;28.44;57.75;98965.38;5103996;28;20024;-63
2022/07/26 10:25:57;;;;;;;10.70;9.70;;;;;;;28.35;56.77;98956.53;5104034;28;20119;-64
2022/07/26 10:28:29;;;;;;;11.23;10.32;;;;;;;28.28;57.75;98955.53;5101848;28;20028;-64
2022/07/26 10:31:20;;;;;;;10.32;9.38;;;;;;;28.14;58.45;98962.34;5103245;28;20082;-64
2022/07/26 10:33:48;;;;;;;9.32;8.52;;;;;;;27.66;59.60;98914.16;5103973;28;20035;-63
2022/07/26 10:47:17;;;;;;;9.80;8.65;;;;;;;27.89;59.30;98950.75;4922106;23;20056;-55
2022/07/26 10:49:54;;;;;;;9.38;8.57;;;;;;;27.80;58.95;98914.50;4894202;29;20088;-55
2022/07/26 10:52:22;;;;;;;9.23;8.32;;;;;;;28.06;58.95;98951.66;4907532;29;20051;-54
2022/07/26 10:55:03;;;;;;;9.73;8.80;;;;;;;28.00;56.80;98942.50;4904996;29;20107;-54
2022/07/26 10:57:35;;;;;;;11.43;10.38;;;;;;;27.93;59.62;98941.47;4910021;29;20220;-54
2022/07/26 11:00:08;;;;;;;10.70;9.43;;;;;;;27.67;60.00;98902.47;4908012;29;20040;-54
2022/07/26 11:02:35;;;;;;;10.30;9.30;;;;;;;27.85;59.92;98941.47;4907801;29;20036;-54
2022/07/26 11:05:12;;;;;;;10.32;9.40;;;;;;;27.83;59.11;98927.47;4907856;29;20068;-55
2022/07/26 11:07:52;;;;;;;9.52;8.57;;;;;;;27.67;59.89;98931.75;4907829;29;20024;-54
2022/07/26 11:10:26;;;;;;;10.57;9.55;;;;;;;27.45;60.52;98889.78;4907942;29;20028;-55
2022/07/26 11:13:18;;;;;;;9.40;8.60;;;;;;;27.80;58.90;98925.97;4889041;29;20084;-54
2022/07/26 11:15:49;;;;;;;12.80;11.68;;;;;;;27.95;58.34;98917.34;4906968;29;20031;-54
2022/07/26 11:18:23;;;;;;;10.98;10.05;;;;;;;27.76;57.72;98894.53;4907715;29;20273;-54
2022/07/26 11:20:52;;;;;;;10.75;9.75;;;;;;;28.06;57.05;98920.56;4906552;29;20024;-55
2022/07/26 11:23:33;;;;;;;10.45;9.30;;;;;;;28.02;57.02;98881.97;4914439;29;20040;-54
2022/07/26 11:26:08;;;;;;;25.42;14.05;;;;;;;28.23;55.26;98907.25;4914981;29;20047;-57
2022/07/26 11:28:52;;;;;;;16.05;11.15;;;;;;;28.47;53.64;98924.25;4910387;29;20095;-54
2022/07/26 11:31:22;;;;;;;11.32;10.25;;;;;;;28.43;54.58;98897.09;4919402;29;20032;-54
2022/07/26 11:33:49;;;;;;;11.13;10.05;;;;;;;28.42;55.79;98898.94;4908092;29;20190;-54